• Join FlightAware (Why Join?)
  • Login
  • US Flag 
06:36AM EDT


 

Airport Tracker/Info


-or-


 

Live Flight TrackerFlight Track Log ✈ AAL1278 ✈ 25-Apr-2013 ✈ KLAX - KORD

Flight Track Log - Related Links

Times and Time Zones

All times are in EDT time to prevent confusion due to time zone crossing. See the AAL1278 flight status page for this flight to view local times or setup timezone preferences in your user account.

Time Position Orientation Groundspeed Altitude Reporting Facility
EDT Latitude Longitude Course Direction KTS MPH feet Rate Location/Type
07:58PM 33.9089 -118.4739 90° East 207 238 2,400  Level Los Angeles Center
07:59PM 33.8406 -118.4878 190° South 250 288 3,500 1,560 Climbing Los Angeles Center
08:00PM 33.7434 -118.5918 134° Southeast  Level FlightAware Approximate
08:00PM 33.7661 -118.5061 192° South 281 323 5,700  Level Los Angeles Center
08:01PM 33.6738 -118.4596 101° East  Level FlightAware Approximate
08:01PM 33.6931 -118.4942 172° South 288 331 8,300  Level Los Angeles Center
08:02PM 33.6333 -118.3093 90° East  Level FlightAware Approximate
08:02PM 33.6569 -118.3875 112° Southeast 294 338 10,900  Level Los Angeles Center
08:03PM 33.6333 -118.1471 90° East  Level FlightAware Approximate
08:03PM 33.6431 -118.2764 99° East 344 396 12,600  Level Los Angeles Center
08:04PM 33.6464 -118.1561 88° East 363 418 14,800 2,280 Climbing Los Angeles Center
08:05PM 33.6447 -118.0261 91° East 393 452 17,400 2,400 Climbing Los Angeles Center
08:06PM 33.6467 -117.8619 89° East 412 474 19,800 2,100 Climbing Los Angeles Center
08:07PM 33.6439 -117.7158 91° East 436 502 21,800 1,560 Climbing Los Angeles Center
08:09PM 33.6431 -117.5642 90° East 453 521 23,100 1,440 Climbing Los Angeles Center
08:10PM 33.6422 -117.4108 90° East 459 528 24,800 1,560 Climbing Los Angeles Center
08:11PM 33.6419 -117.2525 90° East 474 545 26,400 1,500 Climbing Los Angeles Center
08:12PM 33.6394 -117.0569 91° East 490 564 28,000 1,260 Climbing Los Angeles Center
08:13PM 33.6400 -116.8883 90° East 505 581 29,100 1,140 Climbing Los Angeles Center
08:14PM 33.6614 -116.7306 81° East 517 595 30,600 1,500 Climbing Los Angeles Center
08:15PM 33.7044 -116.5331 75° East 507 583 32,600 1,680 Climbing Los Angeles Center
08:16PM 33.7475 -116.3378 75° East 503 579 34,100 1,200 Climbing Los Angeles Center
08:17PM 33.7839 -116.1731 75° East 508 585 35,200 1,080 Climbing Los Angeles Center
08:18PM 33.8192 -116.0108 75° East 504 580 36,400 840 Climbing Los Angeles Center
08:19PM 33.8536 -115.8497 76° East 497 572 37,000 240 Climbing Los Angeles Center
08:20PM 33.8892 -115.6869 75° East 501 577 37,000 -60 Level Los Angeles Center
08:21PM 33.9242 -115.5267 75° East 497 572 36,900  Descending Los Angeles Center
08:22PM 33.9644 -115.3331 76° East 496 571 37,000  Climbing Los Angeles Center
08:23PM 33.9981 -115.1736 76° East 494 568 37,000 -60 Level Los Angeles Center
08:24PM 34.0319 -115.0122 76° East 495 570 36,900  Descending Los Angeles Center
08:25PM 34.0658 -114.8528 76° East 493 567 37,000  Climbing Los Angeles Center
08:26PM 34.0989 -114.6942 76° East 489 563 36,900  Descending Los Angeles Center
08:27PM 34.1425 -114.5400 71° East 487 560 37,000  Climbing Los Angeles Center
08:28PM 34.1961 -114.3508 71° East 496 571 37,000  Level Los Angeles Center
08:29PM 34.2083 -114.3033 73° East 495 570 37,000  Level Albuquerque Center
08:30PM 34.2525 -114.1458 71° East 495 570 37,000  Level Albuquerque Center
08:31PM 34.2972 -113.9864 71° East 497 572 37,000  Level Albuquerque Center
08:32PM 34.3419 -113.8256 71° East 500 575 37,000  Level Albuquerque Center
08:33PM 34.3864 -113.6653 71° East 502 578 37,000  Level Albuquerque Center
08:34PM 34.4386 -113.4753 72° East 506 582 37,000  Level Albuquerque Center
08:35PM 34.4814 -113.3139 72° East 507 583 37,000  Level Albuquerque Center
08:36PM 34.5242 -113.1506 72° East 510 587 37,000  Level Albuquerque Center
08:37PM 34.5675 -112.9900 72° East 508 585 37,000  Level Albuquerque Center
08:38PM 34.6108 -112.8289 72° East 509 586 37,000  Level Albuquerque Center
08:39PM 34.6622 -112.6369 72° East 505 581 37,000  Level Albuquerque Center
08:40PM 34.7033 -112.4767 73° East 503 579 37,000  Level Albuquerque Center
08:41PM 34.7417 -112.3164 74° East 502 578 37,000  Level Albuquerque Center
08:42PM 34.7772 -112.1536 75° East 501 577 37,000  Level Albuquerque Center
08:43PM 34.8147 -111.9919 74° East 503 579 37,000  Level Albuquerque Center
08:44PM 34.8511 -111.8286 75° East 503 579 37,000  Level Albuquerque Center
08:45PM 34.8933 -111.6372 75° East 505 581 37,000  Level Albuquerque Center
08:46PM 34.9311 -111.4692 75° East 511 588 37,000  Level Albuquerque Center
08:47PM 34.9678 -111.3025 75° East 510 587 37,000  Level Albuquerque Center
08:48PM 35.0044 -111.1353 75° East 510 587 37,000  Level Albuquerque Center
08:49PM 35.0406 -110.9678 75° East 510 587 37,000  Level Albuquerque Center
08:50PM 35.0817 -110.7758 75° East 507 583 37,000  Level Albuquerque Center
08:51PM 35.1158 -110.6167 75° East 506 582 37,000  Level Albuquerque Center
08:52PM 35.1556 -110.4311 75° East 506 582 37,000  Level Albuquerque Center
08:53PM 35.1886 -110.2733 76° East 503 579 37,000  Level Albuquerque Center
08:54PM 35.2292 -110.0872 75° East 506 582 37,000  Level Albuquerque Center
08:56PM 35.2631 -109.9261 76° East 510 587 37,000  Level Albuquerque Center
08:57PM 35.2964 -109.7639 76° East 514 592 37,000  Level Albuquerque Center
08:58PM 35.3350 -109.5739 76° East 516 594 37,000  Level Albuquerque Center
08:59PM 35.3675 -109.4111 76° East 517 595 37,000  Level Albuquerque Center
09:00PM 35.4067 -109.2219 76° East 515 593 37,000  Level Albuquerque Center
09:01PM 35.4383 -109.0608 76° East 513 590 37,000  Level Albuquerque Center
09:02PM 35.4761 -108.8711 76° East 514 592 37,000  Level Albuquerque Center
09:03PM 35.5183 -108.7144 72° East 511 588 37,000  Level Albuquerque Center
09:04PM 35.5692 -108.5294 71° East 514 592 37,000  Level Albuquerque Center
09:05PM 35.6133 -108.3703 71° East 516 594 37,000  Level Albuquerque Center
09:06PM 35.6622 -108.1853 72° East 513 590 37,000  Level Albuquerque Center
09:07PM 35.7042 -108.0286 72° East 509 586 37,000  Level Albuquerque Center
09:08PM 35.7522 -107.8442 72° East 509 586 37,000  Level Albuquerque Center
09:09PM 35.7939 -107.6864 72° East 508 585 37,000  Level Albuquerque Center
09:10PM 35.8364 -107.5278 72° East 509 586 37,000  Level Albuquerque Center
09:11PM 35.8842 -107.3411 72° East 512 589 37,000  Level Albuquerque Center
09:12PM 35.9244 -107.1828 73° East 513 590 37,000  Level Albuquerque Center
09:13PM 35.9689 -107.0142 72° East 515 593 37,000  Level Albuquerque Center
09:14PM 36.0119 -106.8442 73° East 516 594 37,000  Level Albuquerque Center
09:15PM 36.0556 -106.6742 72° East 517 595 37,000  Level Albuquerque Center
09:16PM 36.0986 -106.5044 73° East 517 595 37,000  Level Albuquerque Center
09:17PM 36.1500 -106.2997 73° East 517 595 37,000  Level Albuquerque Center
09:18PM 36.1917 -106.1297 73° East 516 594 37,000  Level Albuquerque Center
09:19PM 36.2353 -105.9586 72° East 519 597 37,000  Level Albuquerque Center
09:20PM 36.2750 -105.7850 74° East 522 601 37,000  Level Albuquerque Center
09:21PM 36.3156 -105.6144 74° East 518 596 37,000  Level Albuquerque Center
09:22PM 36.3628 -105.4222 73° East 515 593 37,000  Level Albuquerque Center
09:23PM 36.4028 -105.2506 74° East 514 592 37,000  Level Albuquerque Center
09:24PM 36.4431 -105.0781 74° East 514 592 37,000  Level Albuquerque Center
09:25PM 36.4844 -104.9044 73° East 517 595 37,000  Level Albuquerque Center
09:26PM 36.5406 -104.7369 67° East 521 600 37,000  Level Albuquerque Center
09:27PM 36.6003 -104.5747 65° Northeast 513 590 37,000  Level Albuquerque Center
09:28PM 36.6594 -104.4131 65° Northeast 511 588 37,000  Level Albuquerque Center
09:29PM 36.7228 -104.2381 66° East 510 587 37,000  Level Albuquerque Center
09:30PM 36.7786 -104.0844 66° East 509 586 37,000  Level Albuquerque Center
09:31PM 36.8425 -103.9058 66° East 508 585 37,000  Level Albuquerque Center
09:32PM 36.8981 -103.7506 66° East 511 588 37,000  Level Albuquerque Center
09:34PM 36.9631 -103.5672 66° East 516 594 37,000  Level Albuquerque Center
09:35PM 37.0194 -103.4078 66° East 524 603 37,000  Level Albuquerque Center
09:36PM 37.0744 -103.2489 67° East 523 602 37,000  Level Albuquerque Center
09:37PM 37.1389 -103.0628 66° East 523 602 37,000  Level Albuquerque Center
09:38PM 37.1944 -102.9050 66° East 521 600 37,000  Level Albuquerque Center
09:39PM 37.2567 -102.7233 67° East 511 588 37,100 480 Climbing Albuquerque Center
09:40PM 37.3111 -102.5664 66° East 512 589 38,000 780 Climbing Albuquerque Center
09:41PM 37.3736 -102.3825 67° East 512 589 38,700 480 Climbing Albuquerque Center
09:42PM 37.4286 -102.2164 67° East 516 594 39,000 120 Climbing Albuquerque Center
09:43PM 37.4817 -102.0589 67° East 513 590 39,000  Level Albuquerque Center
09:45PM 37.5861 -101.7439 67° East 509 586 39,000  Level Kansas City Center
09:46PM 37.6386 -101.5839 67° East 514 592 39,000  Level Kansas City Center
09:47PM 37.7000 -101.3958 68° East 517 595 39,000  Level Kansas City Center
09:48PM 37.7539 -101.2353 67° East 517 595 39,000  Level Kansas City Center
09:49PM 37.8069 -101.0722 68° East 518 596 39,000  Level Kansas City Center
09:50PM 37.8700 -100.8808 67° East 519 597 39,000  Level Kansas City Center
09:51PM 37.9228 -100.7156 68° East 522 601 39,000  Level Kansas City Center
09:52PM 37.9769 -100.5536 67° East 521 600 39,000  Level Kansas City Center
09:53PM 38.0414 -100.3661 66° East 519 597 39,000  Level Kansas City Center
09:54PM 38.0958 -100.2033 67° East 520 598 39,000  Level Kansas City Center
09:55PM 38.1581 -100.0131 67° East 523 602 39,000  Level Kansas City Center
09:56PM 38.2136 -99.8494 67° East 525 604 39,000  Level Kansas City Center
09:57PM 38.2692 -99.6822 67° East 533 613 39,000  Level Kansas City Center
09:58PM 38.3292 -99.4956 68° East 533 613 39,000  Level Kansas City Center
09:59PM 38.3853 -99.3214 68° East 531 611 39,000  Level Kansas City Center
10:00PM 38.4425 -99.1472 67° East 531 611 39,000  Level Kansas City Center
10:01PM 38.4989 -98.9733 67° East 530 610 39,000  Level Kansas City Center
10:02PM 38.5556 -98.8000 67° East 529 609 39,000  Level Kansas City Center
10:03PM 38.6117 -98.6253 68° East 530 610 39,000  Level Kansas City Center
10:04PM 38.6672 -98.4494 68° East 530 610 39,000  Level Kansas City Center
10:05PM 38.7336 -98.2375 68° East 531 611 39,000  Level Kansas City Center
10:06PM 38.7892 -98.0608 68° East 532 612 39,000  Level Kansas City Center
10:07PM 38.8456 -97.8825 68° East 536 617 39,000  Level Kansas City Center
10:08PM 38.9003 -97.7044 68° East 537 618 39,000  Level Kansas City Center
10:09PM 38.9561 -97.5089 70° East 537 618 39,000  Level Kansas City Center
10:10PM 39.0031 -97.3294 71° East 538 619 39,000  Level Kansas City Center
10:11PM 39.0492 -97.1550 71° East 539 620 39,000  Level Kansas City Center
10:12PM 39.1019 -96.9503 72° East 539 620 39,000  Level Kansas City Center
10:13PM 39.1483 -96.7747 71° East 540 621 39,000  Level Kansas City Center
10:14PM 39.1944 -96.5992 71° East 541 623 39,000  Level Kansas City Center
10:15PM 39.2433 -96.3958 73° East 533 613 39,000  Level Kansas City Center
10:16PM 39.2922 -96.2089 71° East 531 611 39,000  Level Kansas City Center
10:17PM 39.3381 -96.0200 73° East 529 609 39,000  Level Kansas City Center
10:18PM 39.3811 -95.8475 72° East 526 605 39,000  Level Kansas City Center
10:19PM 39.4242 -95.6739 72° East 526 605 39,000  Level Kansas City Center
10:21PM 39.4756 -95.4633 72° East 524 603 39,000  Level Kansas City Center
10:22PM 39.5192 -95.2842 72° East 523 602 39,000  Level Kansas City Center
10:23PM 39.5575 -95.1250 73° East 519 597 39,000  Level Kansas City Center
10:24PM 39.6064 -94.9242 72° East 520 598 39,000  Level Kansas City Center
10:25PM 39.6464 -94.7525 73° East 518 596 39,000  Level Kansas City Center
10:26PM 39.6886 -94.5806 72° East 521 600 39,000  Level Kansas City Center
10:27PM 39.7353 -94.3786 73° East 522 601 39,000  Level Kansas City Center
10:28PM 39.7753 -94.2072 73° East 517 595 39,000  Level Kansas City Center
10:29PM 39.8219 -93.9969 74° East 528 608 39,000  Level Kansas City Center
10:30PM 39.8600 -93.8214 74° East 524 603 39,000  Level Kansas City Center
10:31PM 39.9125 -93.6514 68° East 514 592 39,000  Level Kansas City Center
10:32PM 39.9636 -93.4794 69° East 514 592 39,000  Level Kansas City Center
10:33PM 40.0131 -93.3061 70° East 515 593 39,000  Level Kansas City Center
10:34PM 40.0633 -93.1350 69° East 513 590 39,000  Level Kansas City Center
10:35PM 40.1211 -92.9464 68° East 509 586 39,000  Level Kansas City Center
10:36PM 40.1683 -92.7789 70° East 511 588 39,000  Level Kansas City Center
10:37PM 40.2222 -92.5842 70° East 510 587 39,000  Level Kansas City Center
10:38PM 40.2714 -92.4164 69° East 513 590 39,000  Level Kansas City Center
10:39PM 40.3211 -92.2447 69° East 532 612 39,000  Level Kansas City Center
10:40PM 40.3803 -92.0328 70° East 526 605 39,000  Level Kansas City Center
10:41PM 40.4286 -91.8567 70° East 521 600 39,000 -480 Level Kansas City Center
10:42PM 40.4767 -91.6808 70° East 518 596 38,100 -1,680 Descending Kansas City Center
10:43PM 40.5061 -91.5761 70° East 515 593 36,400 -3,120 Descending Chicago Center
10:44PM 40.5556 -91.3981 70° East 520 598 33,300 -1,680 Descending Chicago Center
10:45PM 40.6200 -91.2108 66° East 536 617 33,000 -180 Descending Chicago Center
10:46PM 40.6803 -91.0328 66° East 533 613 33,000  Level Chicago Center
10:47PM 40.7411 -90.8550 66° East 531 611 33,000  Level Chicago Center
10:48PM 40.8008 -90.6781 66° East 527 606 33,000 -300 Level Chicago Center
10:49PM 40.8594 -90.5028 66° East 521 600 32,400 -840 Descending Chicago Center
10:50PM 40.9189 -90.3294 66° East 516 594 31,400 -960 Descending Chicago Center
10:51PM 40.9733 -90.1597 67° East 506 582 30,500 -960 Descending Chicago Center
10:52PM 41.0306 -89.9878 66° East 497 572 29,500 -1,620 Descending Chicago Center
10:53PM 41.0861 -89.8194 66° East 490 564 27,300 -2,220 Descending Chicago Center
10:54PM 41.1375 -89.6597 67° East 471 542 25,000 -2,340 Descending Chicago Center
10:55PM 41.1914 -89.5114 64° Northeast 448 516 22,600 -2,400 Descending Chicago Center
10:56PM 41.2608 -89.3408 62° Northeast 437 503 20,200 -2,100 Descending Chicago Center
10:57PM 41.3158 -89.2036 62° Northeast 422 486 18,300 -1,680 Descending Chicago Center
10:58PM 41.3622 -89.0822 63° Northeast 410 472 16,800 -1,740 Descending Chicago Center
10:59PM 41.4150 -88.9533 61° Northeast 400 460 14,800 -1,920 Descending Chicago Center
11:00PM 41.4636 -88.8300 62° Northeast 381 438 13,000 -1,500 Descending Chicago Center
11:01PM 41.5211 -88.6844 62° Northeast 374 430 11,800 -960 Descending Chicago Center
11:02PM 41.5669 -88.5675 62° Northeast 358 412 11,100 -360 Descending Chicago Center
11:03PM 41.6153 -88.4539 60° Northeast 353 406 11,100  Level Chicago Center
11:04PM 41.6761 -88.3511 52° Northeast 352 405 11,100  Level Chicago Center
11:05PM 41.7367 -88.2478 52° Northeast 352 405 11,100  Level Chicago Center
11:06PM 41.7961 -88.1442 52° Northeast 352 405 11,100 -240 Level Chicago Center
11:07PM 41.8494 -88.0506 53° Northeast 322 371 10,700 -960 Descending Chicago Center
11:08PM 41.8833 -88.0000 48° Northeast 294 338 9,600 -1,320 Descending Chicago TRACON
11:09PM 41.8833 -87.8667 90° East 294 338 8,500 -1,140 Descending Chicago TRACON
11:10PM 41.8833 -87.7667 90° East 277 319 7,300 -1,320 Descending Chicago TRACON
11:11PM 41.8833 -87.6833 90° East 253 291 6,000 -1,620 Descending Chicago TRACON
11:12PM 41.9333 -87.6333 37° Northeast 230 265 4,300 -1,740 Descending Chicago TRACON